IZ2OSD Weather Reports


Display with metric or nautical units.
time (UTC)temp
F
wind
direction
speed
MPH
gust
MPH
rain 1hr
in
rain 24hr
in
rain mn
in
humidity
%
barometer
mb
20221003152936 74 0.0 1.0 0.00 0.00 0.00 54 1016.4
20221003151948 74 337 1.0 2.0 0.00 0.00 0.00 55 1016.5
20221003150921 74 315 0.0 3.0 0.00 0.00 0.00 54 1016.7
20221003145916 74 315 0.0 1.0 0.00 0.00 0.00 55 1016.7
20221003144914 74 292 1.0 2.0 0.00 0.00 0.00 55 1016.5
20221003143909 74 0.0 0.0 0.00 0.00 0.00 54 1016.7
20221003142900 75 0.0 0.0 0.00 0.00 0.00 54 1016.8
20221003141856 74 67 0.0 2.0 0.00 0.00 0.00 55 1016.8
20221003140853 74 135 0.0 2.0 0.00 0.00 0.00 55 1017.1
20221003135849 74 22 0.0 2.0 0.00 0.00 0.00 55 1017.1
20221003134926 74 305 1.0 4.0 0.00 0.00 0.00 56 1017.0
20221003133836 73 247 2.0 3.0 0.00 0.00 0.00 57 1017.1
20221003132833 74 292 0.0 1.0 0.00 0.00 0.00 56 1017.3
20221003131828 73 292 1.0 2.0 0.00 0.00 0.00 57 1017.1
20221003130824 73 112 2.0 3.0 0.00 0.00 0.00 57 1017.4
20221003125842 74 103 1.0 4.0 0.00 0.00 0.00 57 1017.2
20221003124812 73 90 0.0 1.0 0.00 0.00 0.00 59 1017.4
20221003123829 73 157 2.0 4.0 0.00 0.00 0.00 59 1017.5
20221003122826 74 292 2.0 3.0 0.00 0.00 0.00 58 1017.5
20221003121822 71 292 3.0 6.0 0.00 0.00 0.00 61 1018.1
20221003120758 71 112 1.0 4.0 0.00 0.00 0.00 59 1018.1
20221003115754 72 112 0.0 2.0 0.00 0.00 0.00 61 1017.7
20221003114811 71 292 1.0 3.0 0.00 0.00 0.00 63 1017.9
20221003113748 71 90 3.0 6.0 0.00 0.00 0.00 62 1018.1
20221003112745 70 337 1.0 4.0 0.00 0.00 0.00 66 1018.2
20221003111740 71 90 0.0 2.0 0.00 0.00 0.00 63 1017.9
20221003110737 70 270 2.0 4.0 0.00 0.00 0.00 66 1018.1
20221003105734 70 22 0.0 1.0 0.00 0.00 0.00 67 1018.1
20221003104728 69 135 0.0 2.0 0.00 0.00 0.00 69 1018.1
20221003103727 69 112 2.0 6.0 0.00 0.00 0.00 69 1018.4
20221003102724 68 315 3.0 6.0 0.00 0.00 0.00 70 1018.4
20221003101720 66 90 3.0 4.0 0.00 0.00 0.00 74 1018.4
20221003100717 68 292 4.0 8.0 0.00 0.00 0.00 72 1018.6
20221003095713 67 112 2.0 6.0 0.00 0.00 0.00 74 1018.7
20221003094710 67 112 2.0 4.0 0.00 0.00 0.00 74 1018.8
20221003093701 66 292 3.0 4.0 0.00 0.00 0.00 76 1018.6
20221003092650 66 315 4.0 6.0 0.00 0.00 0.00 75 1018.9
20221003091707 66 157 1.0 4.0 0.00 0.00 0.00 77 1018.9
20221003090643 65 315 3.0 6.0 0.00 0.00 0.00 77 1018.8
20221003085700 65 90 2.0 4.0 0.00 0.00 0.00 77 1018.9
20221003084635 66 292 1.0 2.0 0.00 0.00 0.00 76 1019.2
20221003083647 65 270 0.0 2.0 0.00 0.00 0.00 79 1019.1
20221003082623 64 0.0 1.0 0.00 0.00 0.00 79 1019.0
20221003081619 65 315 0.0 2.0 0.00 0.00 0.00 78 1019.0
20221003080616 63 292 3.0 4.0 0.00 0.00 0.00 81 1018.8
20221003075652 63 292 0.0 2.0 0.00 0.00 0.00 82 1018.5
20221003074608 63 135 0.0 2.0 0.00 0.00 0.00 82 1018.4
20221003073606 62 315 3.0 6.0 0.00 0.00 0.00 83 1018.2
20221003072601 62 292 2.0 3.0 0.00 0.00 0.00 85 1018.4
20221003071558 61 22 1.0 3.0 0.00 0.00 0.00 84 1018.3
20221003065823 60 337 1.0 3.0 0.00 0.00 0.00 87 1018.1
20221003064759 59 292 3.0 6.0 0.00 0.00 0.00 88 1017.7
20221003063756 58 67 3.0 6.0 0.00 0.00 0.00 89 1017.7
20221003062752 58 315 1.0 4.0 0.00 0.00 0.00 90 1017.6
20221003061809 57 45 3.0 8.0 0.00 0.00 0.00 90 1017.6
20221003060745 56 292 2.0 4.0 0.00 0.00 0.00 91 1017.6
20221003055741 56 292 1.0 3.0 0.00 0.00 0.00 91 1017.8
20221003054741 55 292 2.0 3.0 0.00 0.00 0.00 92 1017.4
20221003053738 55 315 3.0 4.0 0.00 0.00 0.00 92 1017.1
20221003052753 56 292 2.0 4.0 0.00 0.00 0.00 91 1017.3
20221003051749 56 157 1.0 4.0 0.00 0.00 0.00 92 1017.2
20221003050725 56 112 1.0 3.0 0.00 0.00 0.00 92 1017.2
20221003045822 55 0.0 1.0 0.00 0.00 0.00 92 1016.9
20221003044718 56 0.0 0.0 0.00 0.00 0.00 93 1017.1
20221003043734 55 0.0 1.0 0.00 0.00 0.00 93 1016.9
20221003042751 55 0.0 0.0 0.00 0.00 0.00 92 1016.9
20221003041707 55 315 1.0 2.0 0.00 0.00 0.00 92 1016.8
20221003040724 56 315 3.0 4.0 0.00 0.00 0.00 92 1016.8
20221003035701 55 315 1.0 3.0 0.00 0.00 0.00 93 1016.8
20221003034657 54 0.0 0.0 0.00 0.00 0.00 93 1016.9
20221003033654 54 292 1.0 2.0 0.00 0.00 0.00 93 1016.7
20221003032711 54 0.0 0.0 0.00 0.00 0.00 93 1016.5
20221003031707 54 315 0.0 1.0 0.00 0.00 0.00 93 1016.5
20221003030646 54 292 1.0 2.0 0.00 0.00 0.00 93 1016.5
20221003025640 54 0.0 0.0 0.00 0.00 0.00 93 1016.2
20221003024636 55 0.0 0.0 0.00 0.00 0.00 93 1016.3
20221003023633 55 0.0 0.0 0.00 0.00 0.00 93 1016.1
20221003022630 55 0.0 0.0 0.00 0.00 0.00 93 1016.1
20221003021625 55 0.0 0.0 0.00 0.00 0.00 92 1016.2
20221003020623 55 0.0 0.0 0.00 0.00 0.00 92 1016.0
20221003015619 55 315 0.0 2.0 0.00 0.00 0.00 92 1016.2
20221003014617 56 0.0 0.0 0.00 0.00 0.00 92 1015.9
20221003013613 56 0.0 0.0 0.00 0.00 0.00 92 1015.9
20221003012610 56 0.0 0.0 0.00 0.00 0.00 92 1016.0
20221003011606 56 0.0 0.0 0.00 0.00 0.00 92 1016.1
20221003010603 56 0.0 0.0 0.00 0.00 0.00 92 1016.1
20221003005559 56 0.0 1.0 0.00 0.00 0.00 92 1015.9
20221003004556 57 0.0 0.0 0.00 0.00 0.00 92 1015.7
20221003003552 57 0.0 0.0 0.00 0.00 0.00 91 1015.8
20221003002548 57 0.0 0.0 0.00 0.00 0.00 92 1015.5
20221003001545 57 292 0.0 1.0 0.00 0.00 0.00 91 1015.7
20221003000543 57 315 0.0 1.0 0.00 0.00 0.00 90 1015.5
20221002235559 58 0.0 0.0 0.00 0.00 0.00 90 1015.3
20221002234535 58 0.0 0.0 0.00 0.00 0.00 91 1015.4
20221002233532 58 0.0 0.0 0.00 0.00 0.00 91 1015.5
20221002232528 58 0.0 0.0 0.00 0.00 0.00 90 1015.7
20221002231525 58 0.0 0.0 0.00 0.00 0.00 90 1015.7
20221002230521 59 0.0 0.0 0.00 0.00 0.00 90 1015.8
20221002225536 59 0.0 1.0 0.00 0.00 0.00 89 1015.7
20221002224552 59 0.0 0.0 0.00 0.00 0.00 89 1015.3
20221002223529 60 0.0 0.0 0.00 0.00 0.00 88 1015.5
20221002222505 60 0.0 0.0 0.00 0.00 0.00 88 1015.6
20221002221502 60 0.0 0.0 0.00 0.00 0.00 87 1015.6
20221002220459 60 0.0 0.0 0.00 0.00 0.00 87 1015.7
20221002215456 61 0.0 0.0 0.00 0.00 0.00 86 1015.6
20221002214452 61 0.0 0.0 0.00 0.00 0.00 86 1015.9
20221002213447 61 0.0 0.0 0.00 0.00 0.00 86 1015.8
20221002212504 61 0.0 0.0 0.00 0.00 0.00 85 1015.9
20221002211441 61 0.0 0.0 0.00 0.00 0.00 85 1015.7
20221002210437 62 0.0 0.0 0.00 0.00 0.00 85 1016.0
20221002205434 62 0.0 0.0 0.00 0.00 0.00 84 1016.0
20221002204430 63 0.0 0.0 0.00 0.00 0.00 84 1015.9
20221002203426 62 0.0 0.0 0.00 0.00 0.00 84 1016.0
20221002202425 63 0.0 0.0 0.00 0.00 0.00 83 1015.9
20221002201419 63 0.0 0.0 0.00 0.00 0.00 82 1016.1
20221002200416 64 0.0 0.0 0.00 0.00 0.00 81 1016.2
20221002195412 65 292 0.0 1.0 0.00 0.00 0.00 80 1016.0
20221002194410 64 292 1.0 2.0 0.00 0.00 0.00 81 1015.6
20221002193404 64 0.0 0.0 0.00 0.00 0.00 80 1015.8
20221002192401 65 0.0 0.0 0.00 0.00 0.00 79 1015.9
20221002191357 66 0.0 0.0 0.00 0.00 0.00 78 1015.6
20221002190356 66 315 1.0 2.0 0.00 0.00 0.00 77 1015.6
20221002185351 65 135 1.0 2.0 0.00 0.00 0.00 78 1015.6
20221002184408 65 0.0 0.0 0.00 0.00 0.00 77 1015.3
20221002183345 65 0.0 0.0 0.00 0.00 0.00 77 1015.1
20221002182403 66 0.0 0.0 0.00 0.00 0.00 76 1015.6
20221002181339 66 0.0 0.0 0.00 0.00 0.00 76 1015.3
20221002180356 66 0.0 0.0 0.00 0.00 0.00 75 1015.3
20221002175331 67 0.0 0.0 0.00 0.00 0.00 74 1015.4
20221002174328 67 0.0 0.0 0.00 0.00 0.00 71 1015.4
20221002173324 68 0.0 0.0 0.00 0.00 0.00 70 1015.4
20221002172323 69 0.0 0.0 0.00 0.00 0.00 68 1015.1
20221002171320 69 0.0 0.0 0.00 0.00 0.00 68 1015.4
20221002170337 70 0.0 0.0 0.00 0.00 0.00 66 1015.0
20221002165313 71 0.0 0.0 0.00 0.00 0.00 65 1015.1
20221002164310 71 0.0 1.0 0.00 0.00 0.00 64 1015.3
20221002163304 72 0.0 0.0 0.00 0.00 0.00 63 1015.3
20221002162302 72 292 1.0 2.0 0.00 0.00 0.00 62 1015.4
20221002161258 73 292 0.0 1.0 0.00 0.00 0.00 62 1015.3
20221002160254 73 315 0.0 2.0 0.00 0.00 0.00 62 1015.5
20221002155251 73 292 1.0 2.0 0.00 0.00 0.00 61 1015.3
20221002154329 73 0.0 1.0 0.00 0.00 0.00 62 1015.5
20221002153245 73 315 1.0 3.0 0.00 0.00 0.00 62 1015.7